TimeEDT,TemperatureF,Dew PointF,Humidity,Sea Level PressureIn,VisibilityMPH,Wind Direction,Wind SpeedMPH,Gust SpeedMPH,PrecipitationIn,Events,Conditions,WindDirDegrees,DateUTC
12:53 AM,36.0,28.0,73,30.21,7.0,NNW,11.5,-,N/A,,Overcast,340,2014-03-09 05:53:00
1:53 AM,35.1,28.0,76,30.22,6.0,NNW,11.5,-,N/A,,Haze,330,2014-03-09 06:53:00
3:53 AM,35.1,28.9,78,30.22,6.0,NNW,8.1,-,N/A,,Haze,340,2014-03-09 07:53:00
4:08 AM,34.0,30.0,85,30.21,5.0,NW,5.8,-,N/A,,Overcast,320,2014-03-09 08:08:00
4:24 AM,33.1,30.0,89,30.22,4.0,NNW,8.1,-,N/A,,Overcast,330,2014-03-09 08:24:00
4:53 AM,33.1,30.0,89,30.22,5.0,NW,9.2,-,N/A,,Overcast,310,2014-03-09 08:53:00
5:12 AM,32.0,30.0,92,30.22,5.0,NW,8.1,-,N/A,,Overcast,320,2014-03-09 09:12:00
5:53 AM,32.0,28.9,88,30.25,5.0,NNW,8.1,-,N/A,,Overcast,330,2014-03-09 09:53:00
6:00 AM,33.1,28.9,85,30.24,5.0,NNW,6.9,-,N/A,,Overcast,340,2014-03-09 10:00:00
6:53 AM,32.0,28.0,85,30.26,5.0,NW,3.5,-,N/A,,Overcast,320,2014-03-09 10:53:00
7:53 AM,33.1,27.0,78,30.29,5.0,NNW,4.6,-,N/A,,Haze,330,2014-03-09 11:53:00
8:53 AM,33.1,26.1,75,30.30,6.0,NNW,3.5,-,N/A,,Haze,330,2014-03-09 12:53:00
9:53 AM,33.1,26.1,75,30.31,7.0,Calm,Calm,-,N/A,,Overcast,0,2014-03-09 13:53:00
10:53 AM,34.0,25.0,70,30.31,7.0,Calm,Calm,-,N/A,,Overcast,0,2014-03-09 14:53:00
11:53 AM,35.1,25.0,67,30.31,8.0,Calm,Calm,-,N/A,,Overcast,0,2014-03-09 15:53:00
12:53 PM,36.0,26.1,67,30.27,8.0,South,6.9,-,N/A,,Overcast,180,2014-03-09 16:53:00
1:47 PM,39.2,26.6,61,30.24,10.0,SSW,5.8,-,N/A,,Partly Cloudy,210,2014-03-09 17:47:00
1:53 PM,39.9,26.1,58,30.25,10.0,South,4.6,-,N/A,,Partly Cloudy,190,2014-03-09 17:53:00
2:53 PM,44.1,26.1,49,30.20,10.0,West,8.1,-,N/A,,Clear,260,2014-03-09 18:53:00
3:53 PM,46.9,25.0,42,30.16,10.0,SW,9.2,-,N/A,,Clear,230,2014-03-09 19:53:00
4:53 PM,48.0,24.1,39,30.14,10.0,WSW,8.1,-,N/A,,Clear,240,2014-03-09 20:53:00
5:53 PM,48.0,25.0,41,30.11,10.0,SSW,11.5,-,N/A,,Clear,200,2014-03-09 21:53:00
6:53 PM,46.0,25.0,44,30.10,10.0,SW,10.4,-,N/A,,Clear,220,2014-03-09 22:53:00
7:53 PM,42.1,23.0,47,30.09,10.0,WSW,8.1,-,N/A,,Clear,250,2014-03-09 23:53:00
8:53 PM,37.9,26.1,62,30.10,10.0,South,4.6,-,N/A,,Clear,180,2014-03-10 00:53:00
9:53 PM,34.0,27.0,75,30.08,10.0,SSW,5.8,-,N/A,,Clear,200,2014-03-10 01:53:00
10:53 PM,34.0,27.0,75,30.07,10.0,Calm,Calm,-,N/A,,Clear,0,2014-03-10 02:53:00
11:53 PM,32.0,26.1,79,30.06,10.0,South,3.5,-,N/A,,Clear,190,2014-03-10 03:53:00
12:53 AM,30.9,25.0,79,30.05,10.0,SSW,5.8,-,N/A,,Clear,210,2014-03-10 04:53:00